createdAt,value
2022-11-23T00:00:35.068Z,88.15
2022-11-23T00:03:24.350Z,87.71
2022-11-23T00:05:54.847Z,87.12
2022-11-23T00:08:24.318Z,87.42
2022-11-23T00:10:53.466Z,87.82
2022-11-23T00:13:22.834Z,88.40
2022-11-23T00:15:52.030Z,88.24
2022-11-23T00:18:21.324Z,88.81
2022-11-23T00:20:50.441Z,88.14
2022-11-23T00:23:21.201Z,87.95
2022-11-23T00:25:50.298Z,87.90
2022-11-23T00:28:19.633Z,87.37
2022-11-23T00:30:51.274Z,87.54
2022-11-23T00:33:20.735Z,88.04
2022-11-23T00:35:49.865Z,87.71
2022-11-23T00:38:20.718Z,87.26
2022-11-23T00:40:51.272Z,88.02
2022-11-23T00:43:20.672Z,87.22
2022-11-23T00:45:51.092Z,87.64
2022-11-23T00:48:20.362Z,87.69
2022-11-23T00:50:49.581Z,86.73
2022-11-23T00:53:20.362Z,86.60
2022-11-23T00:55:53.631Z,86.17
2022-11-23T00:58:23.021Z,87.36
2022-11-23T01:01:00.801Z,87.14
2022-11-23T01:03:31.320Z,87.08
2022-11-23T01:06:06.592Z,87.43
2022-11-23T01:08:37.527Z,86.81
2022-11-23T01:11:09.281Z,86.32
2022-11-23T01:13:39.218Z,86.96
2022-11-23T01:16:12.026Z,86.66
2022-11-23T01:18:41.460Z,86.92
2022-11-23T01:21:10.615Z,86.57
2022-11-23T01:23:43.416Z,86.04
2022-11-23T01:26:13.451Z,86.59
2022-11-23T01:28:42.832Z,86.93
2022-11-23T01:31:13.974Z,87.24
2022-11-23T01:33:46.736Z,86.56
2022-11-23T01:36:18.268Z,85.87
2022-11-23T01:38:50.121Z,86.22
2022-11-23T01:41:22.140Z,86.32
2022-11-23T01:43:52.030Z,86.54
2022-11-23T01:46:21.598Z,86.32
2022-11-23T01:48:54.335Z,86.09
2022-11-23T01:51:30.229Z,86.46
2022-11-23T01:54:04.561Z,87.00
2022-11-23T01:56:38.922Z,86.50
2022-11-23T01:59:12.277Z,86.34
2022-11-23T02:01:41.401Z,86.87
2022-11-23T02:04:14.396Z,86.84
2022-11-23T02:06:49.160Z,86.65
2022-11-23T02:09:21.297Z,86.25
2022-11-23T02:11:50.430Z,85.75
2022-11-23T02:14:23.348Z,85.96
2022-11-23T02:16:56.547Z,86.59
2022-11-23T02:19:37.413Z,86.35
2022-11-23T02:22:13.605Z,86.98
2022-11-23T02:24:50.705Z,86.80
2022-11-23T02:27:22.486Z,86.30
2022-11-23T02:29:53.628Z,86.81
2022-11-23T02:32:24.960Z,87.46
2022-11-23T02:34:58.547Z,87.43
2022-11-23T02:37:27.708Z,86.89
2022-11-23T02:40:00.922Z,86.44
2022-11-23T02:42:32.973Z,86.37
2022-11-23T02:45:10.123Z,86.98
2022-11-23T02:47:39.626Z,86.97
2022-11-23T02:50:11.756Z,86.64
2022-11-23T02:52:41.511Z,86.67
2022-11-23T02:55:11.829Z,86.41
2022-11-23T02:57:42.323Z,86.55
2022-11-23T03:00:14.259Z,86.66
2022-11-23T03:02:45.046Z,86.59
2022-11-23T03:05:14.650Z,86.92
2022-11-23T03:07:44.016Z,87.02
2022-11-23T03:10:15.410Z,86.39
2022-11-23T03:12:47.703Z,86.89
2022-11-23T03:15:17.352Z,87.10
2022-11-23T03:17:46.634Z,87.56
2022-11-23T03:20:18.734Z,87.73
2022-11-23T03:22:51.396Z,86.84
2022-11-23T03:25:22.581Z,86.55
2022-11-23T03:27:56.578Z,87.19
2022-11-23T03:35:39.033Z,87.20
2022-11-23T03:38:23.855Z,86.31
2022-11-23T03:40:54.533Z,85.97
2022-11-23T03:43:30.689Z,86.02
2022-11-23T03:45:59.948Z,86.88
2022-11-23T03:48:29.348Z,86.38
2022-11-23T03:50:58.573Z,86.30
2022-11-23T03:53:28.041Z,86.12
2022-11-23T03:55:58.278Z,86.25
2022-11-23T03:58:32.112Z,86.68
2022-11-23T04:01:01.998Z,86.86
2022-11-23T04:03:31.527Z,87.46
2022-11-23T04:06:03.220Z,86.60
2022-11-23T04:08:51.028Z,86.95
2022-11-23T04:11:31.140Z,86.55
2022-11-23T04:14:01.970Z,86.30
2022-11-23T04:16:31.605Z,86.28
2022-11-23T04:19:01.149Z,86.71
2022-11-23T04:21:30.294Z,86.79
2022-11-23T04:24:00.731Z,87.07
2022-11-23T04:26:33.125Z,86.91
2022-11-23T04:29:04.079Z,87.37
2022-11-23T04:31:35.548Z,87.54
2022-11-23T04:34:14.886Z,86.73
2022-11-23T04:36:44.600Z,86.78
2022-11-23T04:39:15.860Z,86.90
2022-11-23T04:42:12.356Z,88.25
2022-11-23T04:44:43.369Z,87.96
2022-11-23T04:47:13.061Z,88.04
2022-11-23T04:49:42.589Z,87.61
2022-11-23T04:52:12.412Z,87.38
2022-11-23T04:54:47.645Z,87.62
2022-11-23T04:57:16.883Z,87.81
2022-11-23T04:59:49.394Z,87.85
2022-11-23T05:02:18.667Z,87.72
2022-11-23T05:04:54.264Z,87.64
2022-11-23T05:07:27.184Z,87.54
2022-11-23T05:10:00.666Z,87.91
2022-11-23T05:12:29.738Z,87.62
2022-11-23T05:15:02.265Z,87.78
2022-11-23T05:17:36.944Z,88.76
2022-11-23T05:20:12.404Z,87.96
2022-11-23T05:22:46.401Z,87.77
2022-11-23T05:25:18.960Z,88.67
2022-11-23T05:27:52.221Z,88.31
2022-11-23T05:30:23.217Z,88.10
2022-11-23T05:32:53.103Z,88.47
2022-11-23T05:35:24.351Z,88.49
2022-11-23T05:37:53.793Z,89.26
2022-11-23T05:40:23.553Z,89.18
2022-11-23T05:42:57.914Z,88.88
2022-11-23T05:45:28.961Z,89.82
2022-11-23T05:48:00.877Z,89.39
2022-11-23T05:50:46.674Z,88.66
2022-11-23T05:53:31.940Z,88.64
2022-11-23T05:56:10.121Z,88.98
2022-11-23T05:58:48.690Z,89.26
2022-11-23T06:01:19.644Z,88.52
2022-11-23T06:03:50.587Z,88.99
2022-11-23T06:06:20.526Z,89.29
2022-11-23T06:08:49.725Z,89.93
2022-11-23T06:11:22.817Z,89.46
2022-11-23T06:13:51.930Z,89.18
2022-11-23T06:16:23.300Z,89.68
2022-11-23T06:19:02.840Z,89.45
2022-11-23T06:21:32.457Z,90.06
2022-11-23T06:24:02.578Z,89.55
2022-11-23T06:26:33.946Z,89.65
2022-11-23T06:29:03.236Z,88.99
2022-11-23T06:31:34.560Z,88.84
2022-11-23T06:34:03.988Z,89.68
2022-11-23T06:36:35.456Z,89.11
2022-11-23T06:39:05.158Z,89.33
2022-11-23T06:41:35.204Z,88.85
2022-11-23T06:44:05.480Z,88.75
2022-11-23T06:46:43.756Z,87.70
2022-11-23T06:49:12.788Z,88.02
2022-11-23T06:51:44.398Z,88.19
2022-11-23T06:54:13.721Z,89.11
2022-11-23T06:56:43.957Z,89.43
2022-11-23T06:59:13.645Z,89.53
2022-11-23T07:01:44.668Z,89.35
2022-11-23T07:04:16.028Z,89.19
2022-11-23T07:06:50.408Z,89.12
2022-11-23T07:09:30.023Z,89.53
2022-11-23T07:12:13.127Z,88.92
2022-11-23T07:14:42.289Z,89.01
2022-11-23T07:17:17.393Z,89.11
2022-11-23T07:19:48.453Z,89.65
2022-11-23T07:22:18.069Z,89.14
2022-11-23T07:24:47.298Z,89.36
2022-11-23T07:27:18.513Z,89.88
2022-11-23T07:29:47.882Z,89.14
2022-11-23T07:32:18.561Z,88.87
2022-11-23T07:34:47.784Z,88.98
2022-11-23T07:37:18.136Z,89.38
2022-11-23T07:39:58.518Z,89.41
2022-11-23T07:42:36.842Z,88.72
2022-11-23T07:45:10.474Z,88.85
2022-11-23T07:47:42.880Z,89.27
2022-11-23T07:50:13.809Z,88.64
2022-11-23T07:52:43.135Z,88.59
2022-11-23T07:55:12.148Z,87.57
2022-11-23T07:57:41.427Z,87.75
2022-11-23T08:00:12.223Z,88.24
2022-11-23T08:03:04.169Z,88.33
2022-11-23T08:05:35.723Z,87.95
2022-11-23T08:08:05.537Z,87.77
2022-11-23T08:10:38.771Z,90.03
2022-11-23T08:13:11.385Z,89.25
2022-11-23T08:15:40.507Z,88.57
2022-11-23T08:18:11.639Z,88.92
2022-11-23T08:20:40.973Z,88.89
2022-11-23T08:23:10.394Z,87.95
2022-11-23T08:25:39.693Z,87.07
2022-11-23T08:28:09.124Z,87.72
2022-11-23T08:30:38.335Z,88.13
2022-11-23T08:33:09.650Z,87.51
2022-11-23T08:35:41.342Z,87.91
2022-11-23T08:38:12.356Z,87.92
2022-11-23T08:40:41.632Z,87.53
2022-11-23T08:43:11.013Z,87.43
2022-11-23T08:45:40.289Z,87.85
2022-11-23T08:48:10.450Z,86.97
2022-11-23T08:50:41.149Z,87.28
2022-11-23T08:53:11.338Z,86.43
2022-11-23T08:55:40.718Z,86.55
2022-11-23T08:58:13.321Z,87.88
2022-11-23T09:00:42.690Z,87.28
2022-11-23T09:03:12.031Z,87.13
2022-11-23T09:05:42.591Z,86.54
2022-11-23T09:08:12.068Z,87.57
2022-11-23T09:10:41.258Z,87.49
2022-11-23T09:13:10.757Z,86.60
2022-11-23T09:15:39.957Z,86.25
2022-11-23T09:18:10.266Z,86.35
2022-11-23T09:20:42.792Z,87.30
2022-11-23T09:23:14.250Z,86.99
2022-11-23T09:25:47.814Z,87.19
2022-11-23T09:28:19.584Z,87.19
2022-11-23T09:30:48.960Z,87.19
2022-11-23T09:33:18.362Z,86.86
2022-11-23T09:35:49.031Z,86.69
2022-11-23T09:38:18.426Z,87.17
2022-11-23T09:40:47.611Z,86.60
2022-11-23T09:43:47.934Z,86.61
2022-11-23T09:46:25.971Z,86.60
2022-11-23T09:49:10.785Z,86.50
2022-11-23T09:51:43.339Z,86.34
2022-11-23T09:54:29.982Z,87.25
2022-11-23T09:57:01.967Z,86.64
2022-11-23T09:59:42.124Z,86.64
2022-11-23T10:02:20.876Z,87.01
2022-11-23T10:04:52.059Z,86.60
2022-11-23T10:07:48.587Z,85.86
2022-11-23T10:10:35.402Z,86.28
2022-11-23T10:13:17.623Z,87.45
2022-11-23T10:16:01.974Z,87.57
2022-11-23T10:18:44.033Z,86.53
2022-11-23T10:21:24.594Z,87.06
2022-11-23T10:24:05.557Z,87.06
2022-11-23T10:26:38.890Z,86.67
2022-11-23T10:29:14.968Z,86.06
2022-11-23T10:31:54.027Z,87.45
2022-11-23T10:34:39.276Z,86.17
2022-11-23T10:37:13.125Z,86.33
2022-11-23T10:39:43.812Z,86.03
2022-11-23T10:42:23.919Z,86.06
2022-11-23T10:44:55.662Z,85.40
2022-11-23T10:47:41.039Z,85.48
2022-11-23T10:50:25.892Z,84.97
2022-11-23T10:52:58.188Z,85.20
2022-11-23T10:55:31.446Z,85.50
2022-11-23T10:58:01.853Z,85.26
2022-11-23T11:00:31.785Z,85.40
2022-11-23T11:03:03.494Z,85.70
2022-11-23T11:08:29.041Z,85.45
2022-11-23T11:11:06.221Z,85.46
2022-11-23T11:13:43.869Z,84.88
2022-11-23T11:16:22.739Z,85.54
2022-11-23T11:18:52.413Z,84.58
2022-11-23T11:21:23.763Z,84.69
2022-11-23T11:23:55.794Z,84.73
2022-11-23T11:26:28.208Z,84.06
2022-11-23T11:28:59.274Z,83.94
2022-11-23T11:31:43.569Z,83.81
2022-11-23T11:34:24.927Z,85.40
2022-11-23T11:37:05.482Z,84.71
2022-11-23T11:39:43.532Z,84.62
2022-11-23T11:42:21.064Z,84.33
2022-11-23T11:44:55.607Z,85.53
2022-11-23T11:47:32.319Z,84.53
2022-11-23T11:50:12.411Z,83.78
2022-11-23T11:52:43.871Z,82.93
2022-11-23T11:55:17.712Z,83.31
2022-11-23T11:57:51.284Z,83.68
2022-11-23T12:00:22.003Z,84.52
2022-11-23T12:03:06.620Z,84.63
2022-11-23T12:05:43.413Z,84.20
2022-11-23T12:08:17.700Z,84.78
2022-11-23T12:10:51.984Z,85.14
2022-11-23T12:13:25.897Z,85.00
2022-11-23T12:16:03.601Z,84.27
2022-11-23T12:18:55.460Z,84.22
2022-11-23T12:21:55.697Z,84.79
2022-11-23T12:24:41.552Z,84.79
2022-11-23T12:27:21.200Z,85.29
2022-11-23T12:30:05.310Z,84.33
2022-11-23T12:32:44.995Z,83.89
2022-11-23T12:35:40.429Z,84.17
2022-11-23T12:38:21.576Z,84.85
2022-11-23T12:41:16.373Z,84.95
2022-11-23T12:44:05.048Z,85.11
2022-11-23T12:46:45.999Z,85.12
2022-11-23T12:49:36.128Z,84.51
2022-11-23T12:52:21.879Z,84.99
2022-11-23T12:55:00.702Z,84.73
2022-11-23T12:57:40.315Z,85.17
2022-11-23T13:00:17.413Z,85.05
2022-11-23T13:07:26.281Z,84.74
2022-11-23T13:10:25.961Z,84.44
2022-11-23T13:13:21.660Z,84.47
2022-11-23T13:16:16.598Z,84.21
2022-11-23T13:19:17.342Z,84.65
2022-11-23T13:21:51.524Z,84.86
2022-11-23T13:24:29.505Z,85.74
2022-11-23T13:27:43.706Z,85.58
2022-11-23T13:30:35.593Z,85.97
2022-11-23T13:33:35.842Z,84.60
2022-11-23T13:36:15.274Z,84.47
2022-11-23T13:38:48.725Z,84.93
2022-11-23T13:41:57.999Z,84.55
2022-11-23T13:44:30.537Z,85.19
2022-11-23T13:47:08.922Z,85.36
2022-11-23T13:49:42.944Z,85.46
2022-11-23T13:52:27.421Z,85.15
2022-11-23T13:55:05.344Z,85.04
2022-11-23T13:57:36.908Z,85.43
2022-11-23T14:00:43.227Z,85.52
2022-11-23T14:03:48.971Z,84.89
2022-11-23T14:06:33.785Z,85.15
2022-11-23T14:09:12.588Z,85.27
2022-11-23T14:11:52.451Z,85.60
2022-11-23T14:14:24.753Z,84.78
2022-11-23T14:17:25.414Z,85.76
2022-11-23T14:20:20.319Z,85.52
2022-11-23T14:23:05.584Z,84.78
2022-11-23T14:25:50.429Z,84.73
2022-11-23T14:28:35.482Z,84.48
2022-11-23T14:31:19.060Z,84.79
2022-11-23T14:33:55.817Z,85.06
2022-11-23T14:36:36.597Z,86.24
2022-11-23T14:39:47.268Z,86.05
2022-11-23T14:42:22.322Z,85.78
2022-11-23T14:44:52.097Z,86.50
2022-11-23T14:47:28.850Z,86.02
2022-11-23T14:49:58.586Z,85.92
2022-11-23T14:52:30.590Z,85.86
2022-11-23T14:55:02.743Z,85.43
2022-11-23T14:57:41.739Z,85.47
2022-11-23T15:00:28.697Z,85.65
2022-11-23T15:03:04.585Z,86.28
2022-11-23T15:05:47.471Z,85.81
2022-11-23T15:08:21.332Z,85.69
2022-11-23T15:11:01.485Z,86.20
2022-11-23T15:13:42.936Z,85.92
2022-11-23T15:16:15.913Z,86.31
2022-11-23T15:18:46.017Z,86.02
2022-11-23T15:21:26.528Z,85.88
2022-11-23T15:23:58.356Z,85.42
2022-11-23T15:29:35.353Z,85.64
2022-11-23T15:32:36.297Z,86.07
2022-11-23T15:35:08.709Z,86.22
2022-11-23T15:37:44.068Z,85.55
2022-11-23T15:40:18.353Z,85.38
2022-11-23T15:42:48.634Z,85.94
2022-11-23T15:45:39.240Z,85.90
2022-11-23T15:48:16.167Z,86.04
2022-11-23T15:50:50.624Z,86.24
2022-11-23T15:53:20.593Z,85.97
2022-11-23T15:55:51.428Z,86.56
2022-11-23T15:58:22.624Z,86.36
2022-11-23T16:00:56.971Z,86.82
2022-11-23T16:03:33.544Z,87.43
2022-11-23T16:06:29.475Z,86.65
2022-11-23T16:08:58.652Z,86.56
2022-11-23T16:11:34.740Z,87.08
2022-11-23T16:14:18.184Z,86.84
2022-11-23T16:17:00.333Z,86.33
2022-11-23T16:19:31.683Z,86.33
2022-11-23T16:22:04.540Z,86.97
2022-11-23T16:24:36.807Z,86.61
2022-11-23T16:27:15.111Z,86.30
2022-11-23T16:29:44.451Z,86.57
2022-11-23T16:32:26.900Z,86.28
2022-11-23T16:34:59.004Z,86.18
2022-11-23T16:37:29.001Z,86.36
2022-11-23T16:39:58.041Z,87.50
2022-11-23T16:42:27.634Z,86.73
2022-11-23T16:44:56.799Z,86.99
2022-11-23T16:47:30.167Z,87.37
2022-11-23T16:49:59.594Z,86.48
2022-11-23T16:52:29.023Z,86.36
2022-11-23T16:54:58.080Z,86.01
2022-11-23T16:57:34.681Z,86.28
2022-11-23T17:00:05.942Z,86.97
2022-11-23T17:02:36.950Z,86.56
2022-11-23T17:05:14.231Z,87.28
2022-11-23T17:07:43.876Z,88.24
2022-11-23T17:10:13.872Z,88.39
2022-11-23T17:12:51.610Z,88.11
2022-11-23T17:15:23.443Z,88.00
2022-11-23T17:17:54.390Z,87.19
2022-11-23T17:20:24.758Z,86.58
2022-11-23T17:23:00.154Z,87.14
2022-11-23T17:25:30.548Z,87.62
2022-11-23T17:28:01.435Z,87.07
2022-11-23T17:30:31.438Z,87.84
2022-11-23T17:33:02.273Z,87.89
2022-11-23T17:35:35.377Z,88.52
2022-11-23T17:38:08.013Z,87.57
2022-11-23T17:40:37.131Z,88.74
2022-11-23T17:43:06.630Z,87.85
2022-11-23T17:45:35.990Z,88.74
2022-11-23T17:48:10.840Z,88.48
2022-11-23T17:50:40.203Z,88.97
2022-11-23T17:53:11.525Z,88.75
2022-11-23T17:55:41.414Z,89.32
2022-11-23T17:58:12.777Z,89.75
2022-11-23T18:00:42.347Z,89.36
2022-11-23T18:03:13.195Z,88.82
2022-11-23T18:05:42.385Z,88.40
2022-11-23T18:08:12.524Z,88.52
2022-11-23T18:10:41.580Z,88.09
2022-11-23T18:13:11.127Z,88.49
2022-11-23T18:15:40.584Z,88.36
2022-11-23T18:18:10.111Z,88.34
2022-11-23T18:20:40.655Z,89.15
2022-11-23T18:23:10.278Z,88.09
2022-11-23T18:25:39.522Z,88.42
2022-11-23T18:28:08.932Z,88.18
2022-11-23T18:30:38.278Z,87.80
2022-11-23T18:33:07.809Z,87.96
2022-11-23T18:35:36.980Z,87.03
2022-11-23T18:38:08.028Z,87.76
2022-11-23T18:40:37.321Z,88.89
2022-11-23T18:43:06.672Z,88.59
2022-11-23T18:45:35.924Z,88.04
2022-11-23T18:48:07.901Z,88.44
2022-11-23T18:50:37.284Z,88.73
2022-11-23T18:53:08.284Z,88.04
2022-11-23T18:55:37.372Z,88.82
2022-11-23T18:58:07.420Z,88.96
2022-11-23T19:00:36.619Z,89.44
2022-11-23T19:03:06.208Z,89.91
2022-11-23T19:05:37.113Z,89.53
2022-11-23T19:08:09.142Z,89.28
2022-11-23T19:10:39.646Z,88.89
2022-11-23T19:13:09.284Z,88.80
2022-11-23T19:15:38.956Z,88.69
2022-11-23T19:18:08.431Z,88.73
2022-11-23T19:20:37.689Z,88.47
2022-11-23T19:23:08.529Z,88.65
2022-11-23T19:25:37.671Z,88.67
2022-11-23T19:28:07.257Z,88.50
2022-11-23T19:30:36.400Z,88.03
2022-11-23T19:33:05.897Z,87.82
2022-11-23T19:35:35.385Z,88.35
2022-11-23T19:38:04.818Z,89.19
2022-11-23T19:40:35.290Z,89.28
2022-11-23T19:43:05.006Z,88.98
2022-11-23T19:45:34.155Z,89.01
2022-11-23T19:48:03.564Z,89.21
2022-11-23T19:50:32.721Z,88.86
2022-11-23T19:53:12.284Z,89.64
2022-11-23T19:55:43.024Z,89.01
2022-11-23T19:58:12.601Z,88.82
2022-11-23T20:00:45.619Z,88.68
2022-11-23T20:03:15.507Z,90.17
2022-11-23T20:05:56.409Z,89.95
2022-11-23T20:08:25.743Z,89.63
2022-11-23T20:10:56.684Z,89.17
2022-11-23T20:13:26.441Z,89.30
2022-11-23T20:15:55.624Z,89.44
2022-11-23T20:18:29.555Z,89.94
2022-11-23T20:20:59.146Z,89.87
2022-11-23T20:23:28.610Z,89.11
2022-11-23T20:25:59.836Z,89.01
2022-11-23T20:28:29.538Z,89.48
2022-11-23T20:31:03.799Z,89.46
2022-11-23T20:33:33.419Z,89.96
2022-11-23T20:36:10.349Z,89.29
2022-11-23T20:38:40.131Z,89.78
2022-11-23T20:41:18.872Z,89.64
2022-11-23T20:43:49.990Z,89.32
2022-11-23T20:46:38.309Z,88.85
2022-11-23T20:49:08.628Z,88.65
2022-11-23T20:51:37.968Z,88.49
2022-11-23T20:54:07.405Z,88.82
2022-11-23T20:56:39.881Z,89.58
2022-11-23T20:59:09.301Z,88.89
2022-11-23T21:01:40.575Z,90.33
2022-11-23T21:04:10.526Z,90.56
2022-11-23T21:06:40.335Z,89.93
2022-11-23T21:09:11.237Z,89.59
2022-11-23T21:11:59.486Z,88.97
2022-11-23T21:14:30.657Z,88.78
2022-11-23T21:17:01.324Z,88.81
2022-11-23T21:19:32.021Z,89.31
2022-11-23T21:22:03.902Z,89.39
2022-11-23T21:24:35.412Z,90.11
2022-11-23T21:27:07.952Z,89.28
2022-11-23T21:29:38.086Z,88.50
2022-11-23T21:32:07.427Z,89.02
2022-11-23T21:34:37.312Z,89.22
2022-11-23T21:37:06.673Z,87.82
2022-11-23T21:39:35.917Z,88.50
2022-11-23T21:42:09.764Z,88.58
2022-11-23T21:44:38.782Z,88.29
2022-11-23T21:47:08.185Z,87.54
2022-11-23T21:49:37.584Z,87.76
2022-11-23T21:52:09.008Z,88.02
2022-11-23T21:54:38.137Z,88.01
2022-11-23T21:57:09.134Z,87.87
2022-11-23T21:59:38.537Z,88.04
2022-11-23T22:02:08.198Z,87.56
2022-11-23T22:04:39.095Z,88.52
2022-11-23T22:07:08.731Z,88.23
2022-11-23T22:09:38.161Z,87.56
2022-11-23T22:12:09.196Z,87.67
2022-11-23T22:14:38.435Z,87.38
2022-11-23T22:17:08.022Z,87.85
2022-11-23T22:19:37.354Z,86.80
2022-11-23T22:22:07.568Z,87.20
2022-11-23T22:24:36.715Z,87.73
2022-11-23T22:27:06.261Z,86.73
2022-11-23T22:29:36.940Z,86.39
2022-11-23T22:32:06.656Z,87.98
2022-11-23T22:34:36.140Z,87.43
2022-11-23T22:37:10.401Z,87.56
2022-11-23T22:39:40.143Z,87.60
2022-11-23T22:42:09.729Z,86.42
2022-11-23T22:44:40.485Z,86.86
2022-11-23T22:47:10.552Z,86.45
2022-11-23T22:49:39.881Z,86.98
2022-11-23T22:52:09.352Z,86.86
2022-11-23T22:54:38.649Z,87.49
2022-11-23T22:57:08.261Z,87.14
2022-11-23T22:59:37.449Z,86.99
2022-11-23T23:02:08.437Z,86.26
2022-11-23T23:04:37.994Z,86.05
2022-11-23T23:07:07.581Z,87.34
2022-11-23T23:09:36.802Z,88.24
2022-11-23T23:12:06.764Z,87.39
2022-11-23T23:14:37.007Z,86.53
2022-11-23T23:17:08.064Z,86.84
2022-11-23T23:19:37.666Z,86.80
2022-11-23T23:22:07.442Z,87.03
2022-11-23T23:24:36.988Z,87.31
2022-11-23T23:27:06.387Z,86.39
2022-11-23T23:29:35.552Z,86.97
2022-11-23T23:32:05.281Z,87.47
2022-11-23T23:34:35.877Z,87.98
2022-11-23T23:37:05.340Z,88.23
2022-11-23T23:39:34.678Z,87.58
2022-11-23T23:42:04.228Z,86.80
2022-11-23T23:44:34.452Z,87.38
2022-11-23T23:47:04.229Z,87.79
2022-11-23T23:49:34.787Z,87.74
2022-11-23T23:52:05.772Z,87.95
2022-11-23T23:54:35.168Z,86.67
2022-11-23T23:57:04.860Z,86.45
2022-11-23T23:59:34.021Z,86.31
